sensor_id;sensor_type;location;lat;lon;timestamp;P1;durP1;ratioP1;P2;durP2;ratioP2
146;SDS011;45999;48.808;9.182;2024-03-02T00:00:07;11.20;;;9.17;;
146;SDS011;45999;48.808;9.182;2024-03-02T00:02:42;13.10;;;9.40;;
146;SDS011;45999;48.808;9.182;2024-03-02T00:05:10;10.70;;;9.63;;
146;SDS011;45999;48.808;9.182;2024-03-02T00:07:42;12.70;;;9.37;;
146;SDS011;45999;48.808;9.182;2024-03-02T00:10:09;10.93;;;9.80;;
146;SDS011;45999;48.808;9.182;2024-03-02T00:12:40;11.17;;;10.03;;
146;SDS011;45999;48.808;9.182;2024-03-02T00:18:01;11.87;;;10.30;;
146;SDS011;45999;48.808;9.182;2024-03-02T00:20:29;12.10;;;10.27;;
146;SDS011;45999;48.808;9.182;2024-03-02T00:23:03;11.47;;;10.27;;
146;SDS011;45999;48.808;9.182;2024-03-02T00:25:44;12.67;;;10.40;;
146;SDS011;45999;48.808;9.182;2024-03-02T00:30:52;13.33;;;10.23;;
146;SDS011;45999;48.808;9.182;2024-03-02T00:33:21;11.87;;;9.83;;
146;SDS011;45999;48.808;9.182;2024-03-02T00:35:48;12.13;;;9.70;;
146;SDS011;45999;48.808;9.182;2024-03-02T00:38:16;10.33;;;9.30;;
146;SDS011;45999;48.808;9.182;2024-03-02T00:40:42;12.23;;;10.83;;
146;SDS011;45999;48.808;9.182;2024-03-02T00:46:11;11.97;;;10.30;;
146;SDS011;45999;48.808;9.182;2024-03-02T00:48:47;13.33;;;11.33;;
146;SDS011;45999;48.808;9.182;2024-03-02T00:51:20;16.27;;;11.73;;
146;SDS011;45999;48.808;9.182;2024-03-02T00:53:48;14.03;;;11.17;;
146;SDS011;45999;48.808;9.182;2024-03-02T00:56:15;13.70;;;11.33;;
146;SDS011;45999;48.808;9.182;2024-03-02T00:58:42;12.47;;;11.27;;
146;SDS011;45999;48.808;9.182;2024-03-02T01:01:08;12.73;;;11.33;;
146;SDS011;45999;48.808;9.182;2024-03-02T01:03:35;13.47;;;10.57;;
146;SDS011;45999;48.808;9.182;2024-03-02T01:06:02;12.20;;;10.90;;
146;SDS011;45999;48.808;9.182;2024-03-02T01:08:29;15.33;;;11.43;;
146;SDS011;45999;48.808;9.182;2024-03-02T01:10:55;15.77;;;11.20;;
146;SDS011;45999;48.808;9.182;2024-03-02T01:13:22;13.10;;;11.20;;
146;SDS011;45999;48.808;9.182;2024-03-02T01:15:49;12.63;;;10.60;;
146;SDS011;45999;48.808;9.182;2024-03-02T01:18:16;13.10;;;11.70;;
146;SDS011;45999;48.808;9.182;2024-03-02T01:20:43;13.80;;;11.23;;
146;SDS011;45999;48.808;9.182;2024-03-02T01:23:09;13.33;;;11.03;;
146;SDS011;45999;48.808;9.182;2024-03-02T01:25:36;14.37;;;12.73;;
146;SDS011;45999;48.808;9.182;2024-03-02T01:28:02;13.57;;;12.03;;
146;SDS011;45999;48.808;9.182;2024-03-02T01:30:29;13.70;;;11.33;;
146;SDS011;45999;48.808;9.182;2024-03-02T01:32:56;14.47;;;11.27;;
146;SDS011;45999;48.808;9.182;2024-03-02T01:35:24;12.90;;;11.37;;
146;SDS011;45999;48.808;9.182;2024-03-02T01:37:51;14.57;;;12.00;;
146;SDS011;45999;48.808;9.182;2024-03-02T01:40:18;15.37;;;12.17;;
146;SDS011;45999;48.808;9.182;2024-03-02T01:42:45;14.43;;;11.40;;
146;SDS011;45999;48.808;9.182;2024-03-02T01:45:11;14.10;;;11.83;;
146;SDS011;45999;48.808;9.182;2024-03-02T01:47:38;14.93;;;12.03;;
146;SDS011;45999;48.808;9.182;2024-03-02T01:50:04;13.33;;;11.67;;
146;SDS011;45999;48.808;9.182;2024-03-02T01:52:31;14.70;;;12.57;;
146;SDS011;45999;48.808;9.182;2024-03-02T01:54:57;14.80;;;11.87;;
146;SDS011;45999;48.808;9.182;2024-03-02T01:57:23;13.93;;;11.47;;
146;SDS011;45999;48.808;9.182;2024-03-02T01:59:50;17.00;;;12.47;;
146;SDS011;45999;48.808;9.182;2024-03-02T02:02:16;14.60;;;11.87;;
146;SDS011;45999;48.808;9.182;2024-03-02T02:04:43;14.87;;;12.00;;
146;SDS011;45999;48.808;9.182;2024-03-02T02:07:09;16.20;;;12.40;;
146;SDS011;45999;48.808;9.182;2024-03-02T02:09:36;14.93;;;12.23;;
146;SDS011;45999;48.808;9.182;2024-03-02T02:12:02;14.37;;;12.60;;
146;SDS011;45999;48.808;9.182;2024-03-02T02:14:31;14.83;;;12.73;;
146;SDS011;45999;48.808;9.182;2024-03-02T02:16:58;14.97;;;13.37;;
146;SDS011;45999;48.808;9.182;2024-03-02T02:19:24;16.53;;;13.40;;
146;SDS011;45999;48.808;9.182;2024-03-02T02:21:50;15.80;;;11.77;;
146;SDS011;45999;48.808;9.182;2024-03-02T02:24:17;16.07;;;13.33;;
146;SDS011;45999;48.808;9.182;2024-03-02T02:26:43;15.03;;;12.90;;
146;SDS011;45999;48.808;9.182;2024-03-02T02:29:09;14.77;;;12.47;;
146;SDS011;45999;48.808;9.182;2024-03-02T02:31:42;15.10;;;12.87;;
146;SDS011;45999;48.808;9.182;2024-03-02T02:34:08;14.83;;;13.03;;
146;SDS011;45999;48.808;9.182;2024-03-02T02:36:36;17.40;;;13.40;;
146;SDS011;45999;48.808;9.182;2024-03-02T02:39:04;16.33;;;13.77;;
146;SDS011;45999;48.808;9.182;2024-03-02T02:41:32;15.73;;;13.57;;
146;SDS011;45999;48.808;9.182;2024-03-02T02:43:58;16.50;;;13.53;;
146;SDS011;45999;48.808;9.182;2024-03-02T02:46:25;15.83;;;12.63;;
146;SDS011;45999;48.808;9.182;2024-03-02T02:48:51;18.50;;;13.40;;
146;SDS011;45999;48.808;9.182;2024-03-02T02:51:18;16.70;;;14.03;;
146;SDS011;45999;48.808;9.182;2024-03-02T02:53:45;17.37;;;13.37;;
146;SDS011;45999;48.808;9.182;2024-03-02T02:56:11;16.13;;;13.87;;
146;SDS011;45999;48.808;9.182;2024-03-02T02:58:39;16.73;;;13.57;;
146;SDS011;45999;48.808;9.182;2024-03-02T03:01:06;18.03;;;14.20;;
146;SDS011;45999;48.808;9.182;2024-03-02T03:03:33;17.10;;;14.07;;
146;SDS011;45999;48.808;9.182;2024-03-02T03:06:00;17.53;;;14.20;;
146;SDS011;45999;48.808;9.182;2024-03-02T03:08:27;18.60;;;13.97;;
146;SDS011;45999;48.808;9.182;2024-03-02T03:10:53;17.30;;;14.23;;
146;SDS011;45999;48.808;9.182;2024-03-02T03:13:20;18.37;;;13.97;;
146;SDS011;45999;48.808;9.182;2024-03-02T03:15:46;19.67;;;14.40;;
146;SDS011;45999;48.808;9.182;2024-03-02T03:18:12;18.20;;;14.80;;
146;SDS011;45999;48.808;9.182;2024-03-02T03:20:39;17.97;;;14.73;;
146;SDS011;45999;48.808;9.182;2024-03-02T03:23:05;17.53;;;14.90;;
146;SDS011;45999;48.808;9.182;2024-03-02T03:25:32;18.23;;;14.20;;
146;SDS011;45999;48.808;9.182;2024-03-02T03:27:58;19.97;;;14.70;;
146;SDS011;45999;48.808;9.182;2024-03-02T03:30:26;17.50;;;14.30;;
146;SDS011;45999;48.808;9.182;2024-03-02T03:32:52;18.30;;;15.50;;
146;SDS011;45999;48.808;9.182;2024-03-02T03:35:18;18.10;;;15.33;;
146;SDS011;45999;48.808;9.182;2024-03-02T03:37:45;17.37;;;14.53;;
146;SDS011;45999;48.808;9.182;2024-03-02T03:40:11;17.30;;;14.27;;
146;SDS011;45999;48.808;9.182;2024-03-02T03:42:39;17.93;;;14.50;;
146;SDS011;45999;48.808;9.182;2024-03-02T03:45:05;17.33;;;13.77;;
146;SDS011;45999;48.808;9.182;2024-03-02T03:47:32;17.87;;;14.03;;
146;SDS011;45999;48.808;9.182;2024-03-02T03:49:59;20.87;;;14.23;;
146;SDS011;45999;48.808;9.182;2024-03-02T03:52:25;16.50;;;14.10;;
146;SDS011;45999;48.808;9.182;2024-03-02T03:54:52;16.90;;;13.20;;
146;SDS011;45999;48.808;9.182;2024-03-02T03:57:18;16.50;;;13.27;;
146;SDS011;45999;48.808;9.182;2024-03-02T03:59:45;16.07;;;13.60;;
146;SDS011;45999;48.808;9.182;2024-03-02T04:02:11;19.57;;;15.03;;
146;SDS011;45999;48.808;9.182;2024-03-02T04:04:38;18.97;;;15.10;;
146;SDS011;45999;48.808;9.182;2024-03-02T04:07:04;18.43;;;14.20;;
146;SDS011;45999;48.808;9.182;2024-03-02T04:09:30;17.73;;;14.10;;
146;SDS011;45999;48.808;9.182;2024-03-02T04:11:57;18.37;;;13.53;;
146;SDS011;45999;48.808;9.182;2024-03-02T04:14:24;16.53;;;13.37;;
146;SDS011;45999;48.808;9.182;2024-03-02T04:16:50;16.50;;;14.13;;
146;SDS011;45999;48.808;9.182;2024-03-02T04:19:16;18.63;;;14.20;;
146;SDS011;45999;48.808;9.182;2024-03-02T04:21:43;16.37;;;13.93;;
146;SDS011;45999;48.808;9.182;2024-03-02T04:24:09;16.30;;;13.37;;
146;SDS011;45999;48.808;9.182;2024-03-02T04:26:35;15.20;;;13.07;;
146;SDS011;45999;48.808;9.182;2024-03-02T04:29:02;17.87;;;14.40;;
146;SDS011;45999;48.808;9.182;2024-03-02T04:31:28;16.30;;;13.37;;
146;SDS011;45999;48.808;9.182;2024-03-02T04:33:54;17.87;;;14.67;;
146;SDS011;45999;48.808;9.182;2024-03-02T04:36:21;16.23;;;13.93;;
146;SDS011;45999;48.808;9.182;2024-03-02T04:38:48;16.23;;;13.47;;
146;SDS011;45999;48.808;9.182;2024-03-02T04:41:15;15.73;;;13.00;;
146;SDS011;45999;48.808;9.182;2024-03-02T04:43:42;16.67;;;13.27;;
146;SDS011;45999;48.808;9.182;2024-03-02T04:46:08;16.30;;;13.60;;
146;SDS011;45999;48.808;9.182;2024-03-02T04:48:34;17.60;;;14.03;;
146;SDS011;45999;48.808;9.182;2024-03-02T04:51:01;16.87;;;14.20;;
146;SDS011;45999;48.808;9.182;2024-03-02T04:53:27;18.33;;;14.57;;
146;SDS011;45999;48.808;9.182;2024-03-02T04:55:53;16.20;;;13.70;;
146;SDS011;45999;48.808;9.182;2024-03-02T04:58:42;16.73;;;14.57;;
146;SDS011;45999;48.808;9.182;2024-03-02T05:01:09;15.57;;;13.27;;
146;SDS011;45999;48.808;9.182;2024-03-02T05:03:35;17.20;;;13.67;;
146;SDS011;45999;48.808;9.182;2024-03-02T05:06:02;17.87;;;13.60;;
146;SDS011;45999;48.808;9.182;2024-03-02T05:08:28;17.43;;;13.10;;
146;SDS011;45999;48.808;9.182;2024-03-02T05:10:55;17.13;;;14.23;;
146;SDS011;45999;48.808;9.182;2024-03-02T05:13:41;16.47;;;13.20;;
146;SDS011;45999;48.808;9.182;2024-03-02T05:16:06;17.10;;;13.13;;
146;SDS011;45999;48.808;9.182;2024-03-02T05:18:32;17.10;;;13.90;;
146;SDS011;45999;48.808;9.182;2024-03-02T05:20:59;18.37;;;14.07;;
146;SDS011;45999;48.808;9.182;2024-03-02T05:23:25;15.10;;;12.80;;
146;SDS011;45999;48.808;9.182;2024-03-02T05:25:51;15.37;;;13.00;;
146;SDS011;45999;48.808;9.182;2024-03-02T05:28:18;17.33;;;13.13;;
146;SDS011;45999;48.808;9.182;2024-03-02T05:30:44;15.77;;;12.87;;
146;SDS011;45999;48.808;9.182;2024-03-02T05:33:11;16.80;;;14.03;;
146;SDS011;45999;48.808;9.182;2024-03-02T05:35:37;16.07;;;14.10;;
146;SDS011;45999;48.808;9.182;2024-03-02T05:38:04;17.97;;;14.03;;
146;SDS011;45999;48.808;9.182;2024-03-02T05:40:31;18.00;;;14.30;;
146;SDS011;45999;48.808;9.182;2024-03-02T05:42:57;19.27;;;14.30;;
146;SDS011;45999;48.808;9.182;2024-03-02T05:45:23;18.17;;;13.53;;
146;SDS011;45999;48.808;9.182;2024-03-02T05:47:50;19.23;;;14.50;;
146;SDS011;45999;48.808;9.182;2024-03-02T05:50:16;18.87;;;14.80;;
146;SDS011;45999;48.808;9.182;2024-03-02T05:52:45;16.87;;;13.83;;
146;SDS011;45999;48.808;9.182;2024-03-02T05:55:11;16.47;;;13.97;;
146;SDS011;45999;48.808;9.182;2024-03-02T05:57:38;17.23;;;13.27;;
146;SDS011;45999;48.808;9.182;2024-03-02T06:00:28;16.13;;;13.30;;
146;SDS011;45999;48.808;9.182;2024-03-02T06:02:56;21.00;;;14.50;;
146;SDS011;45999;48.808;9.182;2024-03-02T06:05:22;17.90;;;14.10;;
146;SDS011;45999;48.808;9.182;2024-03-02T06:07:49;17.63;;;13.63;;
146;SDS011;45999;48.808;9.182;2024-03-02T06:10:16;17.33;;;13.70;;
146;SDS011;45999;48.808;9.182;2024-03-02T06:12:42;20.67;;;14.40;;
146;SDS011;45999;48.808;9.182;2024-03-02T06:15:09;17.17;;;12.87;;
146;SDS011;45999;48.808;9.182;2024-03-02T06:17:35;17.67;;;14.20;;
146;SDS011;45999;48.808;9.182;2024-03-02T06:20:02;16.83;;;13.33;;
146;SDS011;45999;48.808;9.182;2024-03-02T06:22:29;16.63;;;13.27;;
146;SDS011;45999;48.808;9.182;2024-03-02T06:24:55;13.87;;;12.07;;
146;SDS011;45999;48.808;9.182;2024-03-02T06:27:21;17.97;;;14.00;;
146;SDS011;45999;48.808;9.182;2024-03-02T06:29:48;17.67;;;13.97;;
146;SDS011;45999;48.808;9.182;2024-03-02T06:32:14;17.60;;;13.93;;
146;SDS011;45999;48.808;9.182;2024-03-02T06:34:40;17.37;;;13.90;;
146;SDS011;45999;48.808;9.182;2024-03-02T06:37:07;18.87;;;14.37;;
146;SDS011;45999;48.808;9.182;2024-03-02T06:39:33;19.03;;;14.03;;
146;SDS011;45999;48.808;9.182;2024-03-02T06:42:01;18.50;;;14.17;;
146;SDS011;45999;48.808;9.182;2024-03-02T06:44:28;17.60;;;14.93;;
146;SDS011;45999;48.808;9.182;2024-03-02T06:46:54;18.33;;;14.13;;
146;SDS011;45999;48.808;9.182;2024-03-02T06:49:20;18.90;;;14.97;;
146;SDS011;45999;48.808;9.182;2024-03-02T06:51:47;17.53;;;13.77;;
146;SDS011;45999;48.808;9.182;2024-03-02T06:54:13;16.97;;;14.03;;
146;SDS011;45999;48.808;9.182;2024-03-02T06:56:39;19.07;;;14.43;;
146;SDS011;45999;48.808;9.182;2024-03-02T06:59:06;16.63;;;13.57;;
146;SDS011;45999;48.808;9.182;2024-03-02T07:01:32;16.20;;;13.43;;
146;SDS011;45999;48.808;9.182;2024-03-02T07:03:59;14.87;;;12.87;;
146;SDS011;45999;48.808;9.182;2024-03-02T07:06:26;16.33;;;13.43;;
146;SDS011;45999;48.808;9.182;2024-03-02T07:08:52;15.97;;;13.00;;
146;SDS011;45999;48.808;9.182;2024-03-02T07:11:18;16.60;;;12.60;;
146;SDS011;45999;48.808;9.182;2024-03-02T07:13:45;15.90;;;12.77;;
146;SDS011;45999;48.808;9.182;2024-03-02T07:16:11;17.37;;;13.27;;
146;SDS011;45999;48.808;9.182;2024-03-02T07:18:51;15.27;;;12.27;;
146;SDS011;45999;48.808;9.182;2024-03-02T07:21:17;14.57;;;12.23;;
146;SDS011;45999;48.808;9.182;2024-03-02T07:23:44;14.53;;;12.30;;
146;SDS011;45999;48.808;9.182;2024-03-02T07:26:10;14.60;;;12.27;;
146;SDS011;45999;48.808;9.182;2024-03-02T07:28:37;15.83;;;12.90;;
146;SDS011;45999;48.808;9.182;2024-03-02T07:31:04;14.40;;;12.17;;
146;SDS011;45999;48.808;9.182;2024-03-02T07:33:31;14.57;;;11.93;;
146;SDS011;45999;48.808;9.182;2024-03-02T07:35:57;14.90;;;12.97;;
146;SDS011;45999;48.808;9.182;2024-03-02T07:38:24;17.53;;;12.77;;
146;SDS011;45999;48.808;9.182;2024-03-02T07:40:51;14.80;;;12.10;;
146;SDS011;45999;48.808;9.182;2024-03-02T07:43:18;13.87;;;11.70;;
146;SDS011;45999;48.808;9.182;2024-03-02T07:45:45;15.77;;;12.37;;
146;SDS011;45999;48.808;9.182;2024-03-02T07:48:12;15.63;;;12.63;;
146;SDS011;45999;48.808;9.182;2024-03-02T07:50:38;15.73;;;12.73;;
146;SDS011;45999;48.808;9.182;2024-03-02T07:53:05;14.50;;;12.33;;
146;SDS011;45999;48.808;9.182;2024-03-02T07:55:32;13.90;;;12.40;;
146;SDS011;45999;48.808;9.182;2024-03-02T07:58:00;13.97;;;11.77;;
146;SDS011;45999;48.808;9.182;2024-03-02T08:00:27;13.07;;;11.37;;
146;SDS011;45999;48.808;9.182;2024-03-02T08:02:53;12.87;;;11.57;;
146;SDS011;45999;48.808;9.182;2024-03-02T08:05:20;12.63;;;10.70;;
146;SDS011;45999;48.808;9.182;2024-03-02T08:07:47;12.37;;;10.97;;
146;SDS011;45999;48.808;9.182;2024-03-02T08:10:17;12.80;;;11.07;;
146;SDS011;45999;48.808;9.182;2024-03-02T08:12:44;14.07;;;10.30;;
146;SDS011;45999;48.808;9.182;2024-03-02T08:15:10;12.57;;;10.47;;
146;SDS011;45999;48.808;9.182;2024-03-02T08:17:37;13.50;;;10.63;;
146;SDS011;45999;48.808;9.182;2024-03-02T08:20:06;12.77;;;11.00;;
146;SDS011;45999;48.808;9.182;2024-03-02T08:22:33;14.33;;;11.73;;
146;SDS011;45999;48.808;9.182;2024-03-02T08:25:00;11.93;;;9.90;;
146;SDS011;45999;48.808;9.182;2024-03-02T08:27:27;11.80;;;10.23;;
146;SDS011;45999;48.808;9.182;2024-03-02T08:29:53;12.53;;;11.23;;
146;SDS011;45999;48.808;9.182;2024-03-02T08:32:19;12.60;;;10.23;;
146;SDS011;45999;48.808;9.182;2024-03-02T08:34:46;11.87;;;10.33;;
146;SDS011;45999;48.808;9.182;2024-03-02T08:37:12;10.37;;;9.33;;
146;SDS011;45999;48.808;9.182;2024-03-02T08:39:39;10.57;;;9.47;;
146;SDS011;45999;48.808;9.182;2024-03-02T08:42:05;12.67;;;9.40;;
146;SDS011;45999;48.808;9.182;2024-03-02T08:44:31;10.40;;;8.73;;
146;SDS011;45999;48.808;9.182;2024-03-02T08:46:58;11.60;;;9.50;;
146;SDS011;45999;48.808;9.182;2024-03-02T08:49:25;12.03;;;9.23;;
146;SDS011;45999;48.808;9.182;2024-03-02T08:51:51;10.67;;;9.27;;
146;SDS011;45999;48.808;9.182;2024-03-02T08:54:20;11.03;;;8.83;;
146;SDS011;45999;48.808;9.182;2024-03-02T08:56:49;9.03;;;7.40;;
146;SDS011;45999;48.808;9.182;2024-03-02T08:59:16;9.33;;;7.63;;
146;SDS011;45999;48.808;9.182;2024-03-02T09:01:43;7.30;;;6.60;;
146;SDS011;45999;48.808;9.182;2024-03-02T09:04:10;8.83;;;7.13;;
146;SDS011;45999;48.808;9.182;2024-03-02T09:06:36;8.80;;;7.87;;
146;SDS011;45999;48.808;9.182;2024-03-02T09:09:03;7.90;;;7.10;;
146;SDS011;45999;48.808;9.182;2024-03-02T09:11:29;8.10;;;7.30;;
146;SDS011;45999;48.808;9.182;2024-03-02T09:13:57;7.60;;;6.80;;
146;SDS011;45999;48.808;9.182;2024-03-02T09:16:24;8.53;;;7.20;;
146;SDS011;45999;48.808;9.182;2024-03-02T09:18:55;7.93;;;7.00;;
146;SDS011;45999;48.808;9.182;2024-03-02T09:21:22;7.97;;;7.17;;
146;SDS011;45999;48.808;9.182;2024-03-02T09:23:48;7.97;;;7.20;;
146;SDS011;45999;48.808;9.182;2024-03-02T09:26:15;8.40;;;6.70;;
146;SDS011;45999;48.808;9.182;2024-03-02T09:28:44;6.63;;;6.03;;
146;SDS011;45999;48.808;9.182;2024-03-02T09:31:11;7.20;;;6.50;;
146;SDS011;45999;48.808;9.182;2024-03-02T09:33:38;6.63;;;5.93;;
146;SDS011;45999;48.808;9.182;2024-03-02T09:36:05;6.60;;;5.90;;
146;SDS011;45999;48.808;9.182;2024-03-02T09:38:32;7.07;;;6.27;;
146;SDS011;45999;48.808;9.182;2024-03-02T09:40:59;6.87;;;6.17;;
146;SDS011;45999;48.808;9.182;2024-03-02T09:43:27;7.37;;;5.93;;
146;SDS011;45999;48.808;9.182;2024-03-02T09:45:54;7.00;;;6.30;;
146;SDS011;45999;48.808;9.182;2024-03-02T09:48:20;7.23;;;6.20;;
146;SDS011;45999;48.808;9.182;2024-03-02T09:50:47;6.63;;;6.03;;
146;SDS011;45999;48.808;9.182;2024-03-02T09:53:13;6.17;;;5.57;;
146;SDS011;45999;48.808;9.182;2024-03-02T09:55:42;6.03;;;5.43;;
146;SDS011;45999;48.808;9.182;2024-03-02T09:58:12;5.80;;;5.20;;
146;SDS011;45999;48.808;9.182;2024-03-02T10:00:39;6.83;;;6.00;;
146;SDS011;45999;48.808;9.182;2024-03-02T10:03:05;5.70;;;5.20;;
146;SDS011;45999;48.808;9.182;2024-03-02T10:05:38;6.47;;;5.87;;
146;SDS011;45999;48.808;9.182;2024-03-02T10:08:04;6.30;;;4.90;;
146;SDS011;45999;48.808;9.182;2024-03-02T10:10:38;5.00;;;4.50;;
146;SDS011;45999;48.808;9.182;2024-03-02T10:13:07;4.90;;;4.50;;
146;SDS011;45999;48.808;9.182;2024-03-02T10:15:35;4.90;;;4.40;;
146;SDS011;45999;48.808;9.182;2024-03-02T10:18:03;4.83;;;4.30;;
146;SDS011;45999;48.808;9.182;2024-03-02T10:20:30;5.00;;;4.47;;
146;SDS011;45999;48.808;9.182;2024-03-02T10:25:37;4.90;;;4.50;;
146;SDS011;45999;48.808;9.182;2024-03-02T10:28:03;4.50;;;4.10;;
146;SDS011;45999;48.808;9.182;2024-03-02T10:30:31;5.30;;;4.63;;
146;SDS011;45999;48.808;9.182;2024-03-02T10:33:01;5.53;;;4.63;;
146;SDS011;45999;48.808;9.182;2024-03-02T10:35:28;4.83;;;4.43;;
146;SDS011;45999;48.808;9.182;2024-03-02T10:37:56;5.23;;;4.33;;
146;SDS011;45999;48.808;9.182;2024-03-02T10:40:26;5.23;;;4.73;;
146;SDS011;45999;48.808;9.182;2024-03-02T10:42:53;4.80;;;4.40;;
146;SDS011;45999;48.808;9.182;2024-03-02T10:45:20;5.67;;;4.40;;
146;SDS011;45999;48.808;9.182;2024-03-02T10:47:47;4.43;;;4.03;;
146;SDS011;45999;48.808;9.182;2024-03-02T10:50:14;4.20;;;3.80;;
146;SDS011;45999;48.808;9.182;2024-03-02T10:52:40;4.60;;;4.20;;
146;SDS011;45999;48.808;9.182;2024-03-02T10:55:07;4.33;;;3.93;;
146;SDS011;45999;48.808;9.182;2024-03-02T10:57:42;4.13;;;3.77;;
146;SDS011;45999;48.808;9.182;2024-03-02T11:00:16;3.90;;;3.60;;
146;SDS011;45999;48.808;9.182;2024-03-02T11:02:56;3.67;;;3.37;;
146;SDS011;45999;48.808;9.182;2024-03-02T11:05:27;3.93;;;3.63;;
146;SDS011;45999;48.808;9.182;2024-03-02T11:08:01;3.90;;;3.60;;
146;SDS011;45999;48.808;9.182;2024-03-02T11:10:34;5.57;;;3.80;;
146;SDS011;45999;48.808;9.182;2024-03-02T11:13:05;3.57;;;3.07;;
146;SDS011;45999;48.808;9.182;2024-03-02T11:15:35;3.30;;;3.00;;
146;SDS011;45999;48.808;9.182;2024-03-02T11:18:04;3.57;;;2.97;;
146;SDS011;45999;48.808;9.182;2024-03-02T11:20:35;3.60;;;3.30;;
146;SDS011;45999;48.808;9.182;2024-03-02T11:23:08;3.30;;;3.10;;
146;SDS011;45999;48.808;9.182;2024-03-02T11:25:35;2.90;;;2.27;;
146;SDS011;45999;48.808;9.182;2024-03-02T11:28:03;5.50;;;2.97;;
146;SDS011;45999;48.808;9.182;2024-03-02T11:33:08;2.57;;;2.37;;
146;SDS011;45999;48.808;9.182;2024-03-02T11:35:35;4.47;;;3.00;;
146;SDS011;45999;48.808;9.182;2024-03-02T11:38:02;5.13;;;3.20;;
146;SDS011;45999;48.808;9.182;2024-03-02T11:40:30;3.70;;;2.80;;
146;SDS011;45999;48.808;9.182;2024-03-02T11:42:56;3.63;;;2.67;;
146;SDS011;45999;48.808;9.182;2024-03-02T11:45:25;3.97;;;2.37;;
146;SDS011;45999;48.808;9.182;2024-03-02T11:47:56;2.40;;;2.20;;
146;SDS011;45999;48.808;9.182;2024-03-02T11:50:35;2.47;;;2.20;;
146;SDS011;45999;48.808;9.182;2024-03-02T11:53:06;2.60;;;1.90;;
146;SDS011;45999;48.808;9.182;2024-03-02T11:55:37;1.93;;;1.73;;
146;SDS011;45999;48.808;9.182;2024-03-02T11:58:05;1.70;;;1.60;;
146;SDS011;45999;48.808;9.182;2024-03-02T12:00:32;1.93;;;1.57;;
146;SDS011;45999;48.808;9.182;2024-03-02T12:03:08;2.60;;;1.50;;
146;SDS011;45999;48.808;9.182;2024-03-02T12:05:38;1.60;;;1.10;;
146;SDS011;45999;48.808;9.182;2024-03-02T12:08:06;0.90;;;0.90;;
146;SDS011;45999;48.808;9.182;2024-03-02T12:10:33;1.70;;;1.00;;
146;SDS011;45999;48.808;9.182;2024-03-02T12:15:28;1.40;;;0.73;;
146;SDS011;45999;48.808;9.182;2024-03-02T12:17:58;0.80;;;0.80;;
146;SDS011;45999;48.808;9.182;2024-03-02T12:20:27;2.30;;;0.80;;
146;SDS011;45999;48.808;9.182;2024-03-02T12:22:55;1.00;;;0.80;;
146;SDS011;45999;48.808;9.182;2024-03-02T12:25:24;1.07;;;0.70;;
146;SDS011;45999;48.808;9.182;2024-03-02T12:27:56;1.03;;;0.93;;
146;SDS011;45999;48.808;9.182;2024-03-02T12:30:26;2.17;;;0.80;;
146;SDS011;45999;48.808;9.182;2024-03-02T12:32:55;0.97;;;0.60;;
146;SDS011;45999;48.808;9.182;2024-03-02T12:35:21;0.80;;;0.60;;
146;SDS011;45999;48.808;9.182;2024-03-02T12:37:48;1.50;;;0.70;;
146;SDS011;45999;48.808;9.182;2024-03-02T12:40:19;0.80;;;0.80;;
146;SDS011;45999;48.808;9.182;2024-03-02T12:42:47;0.70;;;0.70;;
146;SDS011;45999;48.808;9.182;2024-03-02T12:45:15;0.97;;;0.70;;
146;SDS011;45999;48.808;9.182;2024-03-02T12:47:48;0.70;;;0.70;;
146;SDS011;45999;48.808;9.182;2024-03-02T12:50:15;0.97;;;0.90;;
146;SDS011;45999;48.808;9.182;2024-03-02T12:52:41;2.63;;;1.00;;
146;SDS011;45999;48.808;9.182;2024-03-02T12:55:10;1.03;;;0.97;;
146;SDS011;45999;48.808;9.182;2024-03-02T12:57:36;0.97;;;0.83;;
146;SDS011;45999;48.808;9.182;2024-03-02T13:00:06;1.27;;;0.80;;
146;SDS011;45999;48.808;9.182;2024-03-02T13:02:34;0.97;;;0.83;;
146;SDS011;45999;48.808;9.182;2024-03-02T13:05:02;1.63;;;1.10;;
146;SDS011;45999;48.808;9.182;2024-03-02T13:07:28;0.97;;;0.90;;
146;SDS011;45999;48.808;9.182;2024-03-02T13:09:55;1.13;;;1.07;;
146;SDS011;45999;48.808;9.182;2024-03-02T13:12:22;1.00;;;0.90;;
146;SDS011;45999;48.808;9.182;2024-03-02T13:14:53;1.30;;;1.20;;
146;SDS011;45999;48.808;9.182;2024-03-02T13:17:20;1.07;;;0.97;;
146;SDS011;45999;48.808;9.182;2024-03-02T13:19:53;1.13;;;0.90;;
146;SDS011;45999;48.808;9.182;2024-03-02T13:22:22;0.90;;;0.90;;
146;SDS011;45999;48.808;9.182;2024-03-02T13:24:49;1.20;;;0.93;;
146;SDS011;45999;48.808;9.182;2024-03-02T13:27:16;1.60;;;1.00;;
146;SDS011;45999;48.808;9.182;2024-03-02T13:29:44;1.03;;;0.93;;
146;SDS011;45999;48.808;9.182;2024-03-02T13:32:11;1.93;;;0.70;;
146;SDS011;45999;48.808;9.182;2024-03-02T13:34:38;1.20;;;0.80;;
146;SDS011;45999;48.808;9.182;2024-03-02T13:37:04;1.53;;;0.80;;
146;SDS011;45999;48.808;9.182;2024-03-02T13:39:31;0.73;;;0.73;;
146;SDS011;45999;48.808;9.182;2024-03-02T13:42:00;2.13;;;0.93;;
146;SDS011;45999;48.808;9.182;2024-03-02T13:44:30;1.50;;;0.97;;
146;SDS011;45999;48.808;9.182;2024-03-02T13:46:57;1.53;;;0.73;;
146;SDS011;45999;48.808;9.182;2024-03-02T13:49:25;1.53;;;1.07;;
146;SDS011;45999;48.808;9.182;2024-03-02T13:51:58;1.07;;;0.90;;
146;SDS011;45999;48.808;9.182;2024-03-02T13:54:25;1.17;;;1.00;;
146;SDS011;45999;48.808;9.182;2024-03-02T13:56:52;1.53;;;1.00;;
146;SDS011;45999;48.808;9.182;2024-03-02T13:59:18;0.80;;;0.80;;
146;SDS011;45999;48.808;9.182;2024-03-02T14:01:44;1.07;;;0.97;;
146;SDS011;45999;48.808;9.182;2024-03-02T14:04:11;1.00;;;1.00;;
146;SDS011;45999;48.808;9.182;2024-03-02T14:06:37;1.00;;;1.00;;
146;SDS011;45999;48.808;9.182;2024-03-02T14:09:04;1.33;;;1.10;;
146;SDS011;45999;48.808;9.182;2024-03-02T14:11:30;1.10;;;1.00;;
146;SDS011;45999;48.808;9.182;2024-03-02T14:13:56;0.80;;;0.80;;
146;SDS011;45999;48.808;9.182;2024-03-02T14:16:23;1.83;;;1.10;;
146;SDS011;45999;48.808;9.182;2024-03-02T14:18:49;1.10;;;1.00;;
146;SDS011;45999;48.808;9.182;2024-03-02T14:21:16;1.10;;;1.00;;
146;SDS011;45999;48.808;9.182;2024-03-02T14:23:42;1.37;;;1.10;;
146;SDS011;45999;48.808;9.182;2024-03-02T14:26:08;0.83;;;0.83;;
146;SDS011;45999;48.808;9.182;2024-03-02T14:28:35;1.20;;;0.80;;
146;SDS011;45999;48.808;9.182;2024-03-02T14:31:01;1.27;;;1.10;;
146;SDS011;45999;48.808;9.182;2024-03-02T14:33:28;0.77;;;0.77;;
146;SDS011;45999;48.808;9.182;2024-03-02T14:35:54;0.97;;;0.83;;
146;SDS011;45999;48.808;9.182;2024-03-02T14:38:20;1.50;;;1.00;;
146;SDS011;45999;48.808;9.182;2024-03-02T14:40:47;0.80;;;0.80;;
146;SDS011;45999;48.808;9.182;2024-03-02T14:43:14;2.20;;;0.93;;
146;SDS011;45999;48.808;9.182;2024-03-02T14:45:40;1.63;;;0.90;;
146;SDS011;45999;48.808;9.182;2024-03-02T14:48:07;1.10;;;1.10;;
146;SDS011;45999;48.808;9.182;2024-03-02T14:50:33;1.23;;;1.07;;
146;SDS011;45999;48.808;9.182;2024-03-02T14:52:59;0.93;;;0.83;;
146;SDS011;45999;48.808;9.182;2024-03-02T14:55:27;1.10;;;0.97;;
146;SDS011;45999;48.808;9.182;2024-03-02T14:57:53;1.10;;;1.00;;
146;SDS011;45999;48.808;9.182;2024-03-02T15:00:19;0.70;;;0.70;;
146;SDS011;45999;48.808;9.182;2024-03-02T15:02:46;0.90;;;0.90;;
146;SDS011;45999;48.808;9.182;2024-03-02T15:05:13;1.57;;;0.90;;
146;SDS011;45999;48.808;9.182;2024-03-02T15:07:39;0.80;;;0.80;;
146;SDS011;45999;48.808;9.182;2024-03-02T15:10:06;0.80;;;0.80;;
146;SDS011;45999;48.808;9.182;2024-03-02T15:12:33;0.87;;;0.83;;
146;SDS011;45999;48.808;9.182;2024-03-02T15:14:59;1.17;;;1.00;;
146;SDS011;45999;48.808;9.182;2024-03-02T15:17:25;0.90;;;0.83;;